Terminal Aerodrome Forecast
Issued by NWS

Home | Current Version | Previous Version | Text Only | Print | Product List | Glossary On
Versions: 1 2 3 4 5 6 7 8 9 10 11 12 13 14 15
000
FTPQ31 PGUM 031125
TAFGUM
TAF

TAF
PKMJ 031125Z 0312/0412 08017KT P6SM VCSH SCT014 SCT050 BKN120
      TEMPO 0317/0321 2SM +SHRA BKN014 BKN050 OVC100=

USA.gov is the U.S. government's official web portal to all federal, state and local government web resources and services.